Main page
METAR-TAF:

METAR-TAF

Airports :

Kalmar Airport

Kalmar, Sweden

latitude: 56-44N, longitude: 016-18E, elevation: 16 m

Current weather observation

The report was made 15 minutes ago, at 16:50 UTC
Wind 6 kt from the Southwest
Temperature 24°C
Humidity 47%
Pressure 1012 hPa
Visibility 10 km or more

METAR: ESMQ 231650Z AUTO 23006KT 9999 NCD 24/12 Q1012

Time: 19:05 (17:05 UTC)

Forecast

The report was made 5 hours and 35 minutes ago, at 11:30 UTC
Forecast valid from 23 at 12 UTC to 23 at 15 UTC
Wind 8 kt from the West
Visibility 10 km or more
no clouds below 1500 m and no cumulonimbus

TAF: ESMQ 231130Z 2312/2315 28008KT CAVOK

Weather observations and forecasts of more than 4000 airports (METAR and TAF reports).

The available stations are represented by yellow and red dots on the map.

Hover mouse over dot to see the name of the station.

Then click to see weather observations and forecasts.

To change the map : click on the green buttons with a black cross to zoom in, on the green button with a dash to zoom out, or on the green arrows for adjacent maps.


METAR-TAF: